createdAt,value
2023-10-20T00:00:42.490Z,75.30
2023-10-20T00:03:09.985Z,75.51
2023-10-20T00:05:37.200Z,75.27
2023-10-20T00:08:04.028Z,75.62
2023-10-20T00:10:38.071Z,75.58
2023-10-20T00:13:05.998Z,75.39
2023-10-20T00:15:34.570Z,75.54
2023-10-20T00:18:02.563Z,75.73
2023-10-20T00:20:29.934Z,75.72
2023-10-20T00:22:56.930Z,75.68
2023-10-20T00:25:23.890Z,75.69
2023-10-20T00:27:50.554Z,75.63
2023-10-20T00:30:17.075Z,75.34
2023-10-20T00:32:44.267Z,75.61
2023-10-20T00:35:14.503Z,75.29
2023-10-20T00:37:42.208Z,75.55
2023-10-20T00:40:12.255Z,75.48
2023-10-20T00:42:39.406Z,75.64
2023-10-20T00:45:08.038Z,75.71
2023-10-20T00:47:37.227Z,75.61
2023-10-20T00:50:05.837Z,75.71
2023-10-20T00:52:37.119Z,75.60
2023-10-20T00:55:04.582Z,75.61
2023-10-20T00:57:31.192Z,75.70
2023-10-20T00:59:57.650Z,75.55
2023-10-20T01:02:25.640Z,75.57
2023-10-20T01:04:52.679Z,75.64
2023-10-20T01:07:19.140Z,75.96
2023-10-20T01:09:46.012Z,75.60
2023-10-20T01:12:12.529Z,75.57
2023-10-20T01:14:39.159Z,75.74
2023-10-20T01:17:05.991Z,75.86
2023-10-20T01:19:33.428Z,75.77
2023-10-20T01:22:00.990Z,76.05
2023-10-20T01:24:27.914Z,76.13
2023-10-20T01:26:54.419Z,76.02
2023-10-20T01:29:21.208Z,76.04
2023-10-20T01:31:47.828Z,76.06
2023-10-20T01:34:14.572Z,75.95
2023-10-20T01:36:41.321Z,75.94
2023-10-20T01:39:09.226Z,76.07
2023-10-20T01:41:35.807Z,76.00
2023-10-20T01:44:02.294Z,76.04
2023-10-20T01:46:29.774Z,75.99
2023-10-20T01:48:56.418Z,76.08
2023-10-20T01:51:22.870Z,76.13
2023-10-20T01:53:49.356Z,76.15
2023-10-20T01:56:15.872Z,76.09
2023-10-20T01:58:42.392Z,76.17
2023-10-20T02:01:09.690Z,76.14
2023-10-20T02:03:36.330Z,76.18
2023-10-20T02:06:03.191Z,76.11
2023-10-20T02:08:29.680Z,75.94
2023-10-20T02:10:56.143Z,75.98
2023-10-20T02:13:22.603Z,76.26
2023-10-20T02:15:51.364Z,76.12
2023-10-20T02:18:18.634Z,76.11
2023-10-20T02:20:45.350Z,76.25
2023-10-20T02:23:12.585Z,76.03
2023-10-20T02:25:39.220Z,76.09
2023-10-20T02:28:06.085Z,76.10
2023-10-20T02:30:33.725Z,76.12
2023-10-20T02:33:01.639Z,75.99
2023-10-20T02:35:28.181Z,75.96
2023-10-20T02:37:54.637Z,75.87
2023-10-20T02:40:21.251Z,76.05
2023-10-20T02:42:47.896Z,76.16
2023-10-20T02:45:14.642Z,76.03
2023-10-20T02:47:41.406Z,76.15
2023-10-20T02:50:08.639Z,76.21
2023-10-20T02:52:35.156Z,76.13
2023-10-20T02:55:01.872Z,76.26
2023-10-20T02:57:28.473Z,75.98
2023-10-20T02:59:54.972Z,76.02
2023-10-20T03:02:21.839Z,76.20
2023-10-20T03:04:48.483Z,76.27
2023-10-20T03:07:15.057Z,76.19
2023-10-20T03:09:41.510Z,76.17
2023-10-20T03:12:07.993Z,76.12
2023-10-20T03:14:35.988Z,75.87
2023-10-20T03:17:02.980Z,75.98
2023-10-20T03:19:29.769Z,76.12
2023-10-20T03:21:56.388Z,76.01
2023-10-20T03:24:22.980Z,76.30
2023-10-20T03:26:49.687Z,76.25
2023-10-20T03:29:16.344Z,76.14
2023-10-20T03:31:43.320Z,76.20
2023-10-20T03:34:09.838Z,76.50
2023-10-20T03:36:36.301Z,76.31
2023-10-20T03:39:02.830Z,76.18
2023-10-20T03:41:30.460Z,76.05
2023-10-20T03:43:57.066Z,76.07
2023-10-20T03:46:24.648Z,76.28
2023-10-20T03:48:51.158Z,76.28
2023-10-20T03:51:18.296Z,76.26
2023-10-20T03:53:48.812Z,76.16
2023-10-20T03:56:16.106Z,76.17
2023-10-20T03:58:43.745Z,76.37
2023-10-20T04:01:10.445Z,76.34
2023-10-20T04:03:37.009Z,76.37
2023-10-20T04:06:07.461Z,76.31
2023-10-20T04:08:35.224Z,76.28
2023-10-20T04:11:02.039Z,76.09
2023-10-20T04:13:33.277Z,76.45
2023-10-20T04:16:13.495Z,76.38
2023-10-20T04:18:44.379Z,76.17
2023-10-20T04:21:14.939Z,76.40
2023-10-20T04:23:42.170Z,76.37
2023-10-20T04:26:34.835Z,76.26
2023-10-20T04:29:14.622Z,76.11
2023-10-20T04:32:00.383Z,76.38
2023-10-20T04:34:46.088Z,76.31
2023-10-20T04:37:31.352Z,76.44
2023-10-20T04:40:16.436Z,76.37
2023-10-20T04:42:42.940Z,76.52
2023-10-20T04:45:22.951Z,76.41
2023-10-20T04:48:01.414Z,76.40
2023-10-20T04:50:33.931Z,76.54
2023-10-20T04:53:06.781Z,76.34
2023-10-20T04:55:54.216Z,76.31
2023-10-20T04:58:39.055Z,76.23
2023-10-20T05:01:08.765Z,76.38
2023-10-20T05:03:47.709Z,76.46
2023-10-20T05:06:23.718Z,76.38
2023-10-20T05:08:50.907Z,76.51
2023-10-20T05:11:17.920Z,76.68
2023-10-20T05:17:26.523Z,76.41
2023-10-20T05:19:54.900Z,76.51
2023-10-20T05:22:21.507Z,76.24
2023-10-20T05:24:48.082Z,76.42
2023-10-20T05:27:14.590Z,76.39
2023-10-20T05:29:41.190Z,76.63
2023-10-20T05:32:07.947Z,76.79
2023-10-20T05:34:35.691Z,76.76
2023-10-20T05:37:02.676Z,76.64
2023-10-20T05:39:29.251Z,76.52
2023-10-20T05:41:55.804Z,76.53
2023-10-20T05:44:24.258Z,76.47
2023-10-20T05:46:51.793Z,76.40
2023-10-20T05:49:18.371Z,76.43
2023-10-20T05:51:46.314Z,76.46
2023-10-20T05:54:12.788Z,76.37
2023-10-20T05:56:39.322Z,76.34
2023-10-20T05:59:05.855Z,76.38
2023-10-20T06:01:32.494Z,76.37
2023-10-20T06:03:59.432Z,76.41
2023-10-20T06:06:25.973Z,76.38
2023-10-20T06:08:52.478Z,76.38
2023-10-20T06:11:19.083Z,76.42
2023-10-20T06:13:45.506Z,76.55
2023-10-20T06:16:12.688Z,76.52
2023-10-20T06:18:42.085Z,76.36
2023-10-20T06:21:18.092Z,76.48
2023-10-20T06:23:45.248Z,76.53
2023-10-20T06:26:12.034Z,76.57
2023-10-20T06:28:38.628Z,76.52
2023-10-20T06:31:28.559Z,76.61
2023-10-20T06:34:10.644Z,76.42
2023-10-20T06:36:41.332Z,76.34
2023-10-20T06:39:13.971Z,76.47
2023-10-20T06:41:41.201Z,76.46
2023-10-20T06:44:08.035Z,76.60
2023-10-20T06:46:34.547Z,76.57
2023-10-20T06:49:01.027Z,76.54
2023-10-20T06:51:27.536Z,76.51
2023-10-20T06:53:54.854Z,76.59
2023-10-20T06:56:25.894Z,76.59
2023-10-20T06:58:54.587Z,76.60
2023-10-20T07:01:21.076Z,76.22
2023-10-20T07:03:47.813Z,76.32
2023-10-20T07:06:14.530Z,76.21
2023-10-20T07:08:41.258Z,76.50
2023-10-20T07:11:08.165Z,76.47
2023-10-20T07:13:35.118Z,76.67
2023-10-20T07:16:01.941Z,76.60
2023-10-20T07:18:28.707Z,76.79
2023-10-20T07:20:58.687Z,76.75
2023-10-20T07:23:25.976Z,76.51
2023-10-20T07:25:53.887Z,76.66
2023-10-20T07:28:20.401Z,76.61
2023-10-20T07:30:46.848Z,76.66
2023-10-20T07:33:13.545Z,76.80
2023-10-20T07:35:40.449Z,76.58
2023-10-20T07:38:09.202Z,76.53
2023-10-20T07:40:38.950Z,76.67
2023-10-20T07:43:07.478Z,76.62
2023-10-20T07:45:44.281Z,76.35
2023-10-20T07:48:11.964Z,76.42
2023-10-20T07:50:39.026Z,76.67
2023-10-20T07:53:06.355Z,76.48
2023-10-20T07:55:32.909Z,76.62
2023-10-20T07:58:02.299Z,76.62
2023-10-20T08:00:30.677Z,76.57
2023-10-20T08:02:57.457Z,76.43
2023-10-20T08:05:27.054Z,76.54
2023-10-20T08:07:54.389Z,76.57
2023-10-20T08:10:22.924Z,76.54
2023-10-20T08:12:50.337Z,76.60
2023-10-20T08:15:17.588Z,76.36
2023-10-20T08:17:46.264Z,76.61
2023-10-20T08:20:13.848Z,76.49
2023-10-20T08:22:40.637Z,76.53
2023-10-20T08:25:08.550Z,76.41
2023-10-20T08:27:35.300Z,76.29
2023-10-20T08:30:01.952Z,76.44
2023-10-20T08:32:28.539Z,76.35
2023-10-20T08:34:55.059Z,76.36
2023-10-20T08:37:21.565Z,76.30
2023-10-20T08:39:48.209Z,76.35
2023-10-20T08:42:19.039Z,76.36
2023-10-20T08:44:46.338Z,76.31
2023-10-20T08:47:18.589Z,76.33
2023-10-20T08:49:47.224Z,76.35
2023-10-20T08:52:14.597Z,76.55
2023-10-20T08:54:42.267Z,76.35
2023-10-20T08:57:09.477Z,76.39
2023-10-20T08:59:39.048Z,76.37
2023-10-20T09:02:06.415Z,76.25
2023-10-20T09:04:35.484Z,76.30
2023-10-20T09:07:13.000Z,76.06
2023-10-20T09:09:41.905Z,76.31
2023-10-20T09:12:09.876Z,76.42
2023-10-20T09:14:42.693Z,76.31
2023-10-20T09:17:13.134Z,76.33
2023-10-20T09:19:39.644Z,76.43
2023-10-20T09:22:06.782Z,76.33
2023-10-20T09:24:33.471Z,76.38
2023-10-20T09:27:01.068Z,76.35
2023-10-20T09:29:31.107Z,76.33
2023-10-20T09:32:00.773Z,76.25
2023-10-20T09:34:28.703Z,76.26
2023-10-20T09:36:57.762Z,76.42
2023-10-20T09:39:38.457Z,76.32
2023-10-20T09:42:07.135Z,76.47
2023-10-20T09:44:47.640Z,76.26
2023-10-20T09:47:23.152Z,76.25
2023-10-20T09:49:52.320Z,76.50
2023-10-20T09:52:20.314Z,76.56
2023-10-20T09:54:51.384Z,76.57
2023-10-20T09:57:20.795Z,76.68
2023-10-20T09:59:54.780Z,76.32
2023-10-20T10:02:29.127Z,76.24
2023-10-20T10:04:58.060Z,76.53
2023-10-20T10:07:37.234Z,76.30
2023-10-20T10:10:06.171Z,76.55
2023-10-20T10:12:34.798Z,76.57
2023-10-20T10:15:13.701Z,76.35
2023-10-20T10:17:47.990Z,76.41
2023-10-20T10:20:28.601Z,76.37
2023-10-20T10:23:02.644Z,76.38
2023-10-20T10:25:42.679Z,76.10
2023-10-20T10:28:19.511Z,76.46
2023-10-20T10:30:49.897Z,76.72
2023-10-20T10:33:22.337Z,76.50
2023-10-20T10:35:49.315Z,76.57
2023-10-20T10:38:23.386Z,76.31
2023-10-20T10:40:52.384Z,76.37
2023-10-20T10:43:20.706Z,76.33
2023-10-20T10:45:54.489Z,75.88
2023-10-20T10:48:25.617Z,75.92
2023-10-20T10:50:52.403Z,76.09
2023-10-20T10:53:19.059Z,75.99
2023-10-20T10:55:46.469Z,76.15
2023-10-20T10:58:14.234Z,76.11
2023-10-20T11:00:45.089Z,76.30
2023-10-20T11:03:12.741Z,76.46
2023-10-20T11:05:40.252Z,76.51
2023-10-20T11:08:08.754Z,76.45
2023-10-20T11:10:38.838Z,76.34
2023-10-20T11:13:07.714Z,76.14
2023-10-20T11:15:34.594Z,76.49
2023-10-20T11:18:02.764Z,76.30
2023-10-20T11:20:33.904Z,76.06
2023-10-20T11:23:05.276Z,76.28
2023-10-20T11:25:31.764Z,76.48
2023-10-20T11:27:58.773Z,76.44
2023-10-20T11:30:25.453Z,76.32
2023-10-20T11:32:56.260Z,76.23
2023-10-20T11:35:25.782Z,76.36
2023-10-20T11:37:53.547Z,76.43
2023-10-20T11:40:21.121Z,76.44
2023-10-20T11:42:50.850Z,76.34
2023-10-20T11:45:18.004Z,76.59
2023-10-20T11:47:44.852Z,76.69
2023-10-20T11:50:12.037Z,76.67
2023-10-20T11:52:42.540Z,76.56
2023-10-20T11:55:10.286Z,76.68
2023-10-20T11:57:37.711Z,76.52
2023-10-20T12:00:11.447Z,76.49
2023-10-20T12:02:42.004Z,76.39
2023-10-20T12:05:09.820Z,76.40
2023-10-20T12:07:37.387Z,76.48
2023-10-20T12:10:06.508Z,76.46
2023-10-20T12:12:33.460Z,76.68
2023-10-20T12:15:01.430Z,76.63
2023-10-20T12:17:28.454Z,76.53
2023-10-20T12:19:55.395Z,76.48
2023-10-20T12:22:21.893Z,76.23
2023-10-20T12:24:48.423Z,76.64
2023-10-20T12:27:15.097Z,76.66
2023-10-20T12:29:41.915Z,76.72
2023-10-20T12:32:13.638Z,76.39
2023-10-20T12:34:40.945Z,76.48
2023-10-20T12:37:07.496Z,76.43
2023-10-20T12:39:34.590Z,76.51
2023-10-20T12:42:04.323Z,76.38
2023-10-20T12:44:31.054Z,76.34
2023-10-20T12:46:57.692Z,76.17
2023-10-20T12:49:24.227Z,76.37
2023-10-20T12:51:50.683Z,76.45
2023-10-20T12:54:17.423Z,76.30
2023-10-20T12:56:44.028Z,76.26
2023-10-20T12:59:10.522Z,76.05
2023-10-20T13:01:37.048Z,76.07
2023-10-20T13:04:03.888Z,76.04
2023-10-20T13:06:31.853Z,76.01
2023-10-20T13:09:00.558Z,76.06
2023-10-20T13:11:27.173Z,76.08
2023-10-20T13:13:53.906Z,76.12
2023-10-20T13:16:20.379Z,76.12
2023-10-20T13:18:46.863Z,76.31
2023-10-20T13:21:13.308Z,76.21
2023-10-20T13:23:39.813Z,76.37
2023-10-20T13:26:06.291Z,76.30
2023-10-20T13:28:33.728Z,76.33
2023-10-20T13:31:12.373Z,76.57
2023-10-20T13:33:40.915Z,76.16
2023-10-20T13:36:09.159Z,76.29
2023-10-20T13:38:39.046Z,76.11
2023-10-20T13:41:06.561Z,76.47
2023-10-20T13:43:33.519Z,76.36
2023-10-20T13:46:00.533Z,76.22
2023-10-20T13:48:27.453Z,76.36
2023-10-20T13:50:54.405Z,76.06
2023-10-20T13:53:21.154Z,76.11
2023-10-20T13:55:47.836Z,76.37
2023-10-20T13:58:16.369Z,76.34
2023-10-20T14:00:42.981Z,76.48
2023-10-20T14:03:09.730Z,76.54
2023-10-20T14:05:36.688Z,76.41
2023-10-20T14:08:03.520Z,76.60
2023-10-20T14:10:30.322Z,76.44
2023-10-20T14:12:57.212Z,76.29
2023-10-20T14:15:24.490Z,76.62
2023-10-20T14:17:51.555Z,76.54
2023-10-20T14:20:18.998Z,76.52
2023-10-20T14:22:45.668Z,76.80
2023-10-20T14:25:12.508Z,76.79
2023-10-20T14:27:40.330Z,76.79
2023-10-20T14:30:08.119Z,76.93
2023-10-20T14:32:35.415Z,76.91
2023-10-20T14:35:02.260Z,76.78
2023-10-20T14:37:28.849Z,76.87
2023-10-20T14:39:57.395Z,76.70
2023-10-20T14:42:24.266Z,76.86
2023-10-20T14:44:51.534Z,77.06
2023-10-20T14:47:18.517Z,77.18
2023-10-20T14:49:45.059Z,76.83
2023-10-20T14:52:13.409Z,77.08
2023-10-20T14:54:40.572Z,76.90
2023-10-20T14:57:07.491Z,77.12
2023-10-20T14:59:34.238Z,76.76
2023-10-20T15:02:00.938Z,77.16
2023-10-20T15:04:30.795Z,77.23
2023-10-20T15:06:58.189Z,76.96
2023-10-20T15:09:24.905Z,77.14
2023-10-20T15:11:52.481Z,77.23
2023-10-20T15:14:19.238Z,77.22
2023-10-20T15:16:45.864Z,77.26
2023-10-20T15:19:12.538Z,77.10
2023-10-20T15:21:39.005Z,77.50
2023-10-20T15:24:07.365Z,77.48
2023-10-20T15:26:33.899Z,77.23
2023-10-20T15:29:00.458Z,77.41
2023-10-20T15:31:27.001Z,77.22
2023-10-20T15:33:53.756Z,77.37
2023-10-20T15:36:22.305Z,77.42
2023-10-20T15:38:50.445Z,77.46
2023-10-20T15:41:19.161Z,77.30
2023-10-20T15:43:46.190Z,77.24
2023-10-20T15:46:13.841Z,77.37
2023-10-20T15:48:40.749Z,77.30
2023-10-20T15:51:09.092Z,77.32
2023-10-20T15:53:36.032Z,77.40
2023-10-20T15:56:02.616Z,77.51
2023-10-20T15:58:29.215Z,77.29
2023-10-20T16:01:00.751Z,77.40
2023-10-20T16:03:57.342Z,77.61
2023-10-20T16:06:23.982Z,77.51
2023-10-20T16:08:54.146Z,77.38
2023-10-20T16:11:20.676Z,77.53
2023-10-20T16:13:47.112Z,77.67
2023-10-20T16:19:07.586Z,77.71
2023-10-20T16:21:34.196Z,77.61
2023-10-20T16:24:00.833Z,77.67
2023-10-20T16:26:27.522Z,77.80
2023-10-20T16:28:54.132Z,77.68
2023-10-20T16:31:20.695Z,77.78
2023-10-20T16:33:47.325Z,77.63
2023-10-20T16:36:13.853Z,77.75
2023-10-20T16:38:40.627Z,77.60
2023-10-20T16:41:07.200Z,77.69
2023-10-20T16:43:33.766Z,77.63
2023-10-20T16:46:05.249Z,77.64
2023-10-20T16:48:32.733Z,77.79
2023-10-20T16:50:59.605Z,77.78
2023-10-20T16:53:26.270Z,77.63
2023-10-20T16:55:53.171Z,77.54
2023-10-20T16:58:20.030Z,77.59
2023-10-20T17:00:46.587Z,77.67
2023-10-20T17:03:13.155Z,77.62
2023-10-20T17:05:39.832Z,77.71
2023-10-20T17:08:06.841Z,77.70
2023-10-20T17:10:38.362Z,77.53
2023-10-20T17:13:04.828Z,77.68
2023-10-20T17:15:32.261Z,77.77
2023-10-20T17:17:59.616Z,77.97
2023-10-20T17:20:26.290Z,77.97
2023-10-20T17:22:52.882Z,78.03
2023-10-20T17:25:19.519Z,77.98
2023-10-20T17:27:46.781Z,78.06
2023-10-20T17:30:13.667Z,78.16
2023-10-20T17:32:40.368Z,78.11
2023-10-20T17:35:07.336Z,78.02
2023-10-20T17:37:33.898Z,78.07
2023-10-20T17:40:01.771Z,77.81
2023-10-20T17:42:28.225Z,77.91
2023-10-20T17:44:54.797Z,77.90
2023-10-20T17:47:21.328Z,77.95
2023-10-20T17:49:47.829Z,78.03
2023-10-20T17:52:14.373Z,77.93
2023-10-20T17:54:41.049Z,78.03
2023-10-20T17:57:08.051Z,77.97
2023-10-20T17:59:34.848Z,78.18
2023-10-20T18:02:01.857Z,78.21
2023-10-20T18:04:28.529Z,78.30
2023-10-20T18:06:55.086Z,78.46
2023-10-20T18:10:00.665Z,78.28
2023-10-20T18:12:27.246Z,78.55
2023-10-20T18:14:53.729Z,78.91
2023-10-20T18:17:20.259Z,78.79
2023-10-20T18:19:46.770Z,78.93
2023-10-20T18:22:13.630Z,78.97
2023-10-20T18:24:40.087Z,78.92
2023-10-20T18:27:06.649Z,78.93
2023-10-20T18:29:35.893Z,78.98
2023-10-20T18:32:03.857Z,78.86
2023-10-20T18:34:30.395Z,78.65
2023-10-20T18:36:58.122Z,78.78
2023-10-20T18:39:25.241Z,78.84
2023-10-20T18:41:53.697Z,78.82
2023-10-20T18:44:20.310Z,78.54
2023-10-20T18:46:46.874Z,78.45
2023-10-20T18:49:13.490Z,78.45
2023-10-20T18:51:42.078Z,78.36
2023-10-20T18:54:10.981Z,78.50
2023-10-20T18:56:38.258Z,78.62
2023-10-20T18:59:06.198Z,78.68
2023-10-20T19:01:32.840Z,78.71
2023-10-20T19:03:59.469Z,78.60
2023-10-20T19:06:26.154Z,78.61
2023-10-20T19:08:52.804Z,78.70
2023-10-20T19:11:21.950Z,78.91
2023-10-20T19:13:48.511Z,78.53
2023-10-20T19:16:15.104Z,78.32
2023-10-20T19:18:41.769Z,78.29
2023-10-20T19:21:11.896Z,78.37
2023-10-20T19:23:39.201Z,78.59
2023-10-20T19:26:15.288Z,78.39
2023-10-20T19:28:42.349Z,78.24
2023-10-20T19:31:09.233Z,78.39
2023-10-20T19:33:37.443Z,78.28
2023-10-20T19:36:07.413Z,78.17
2023-10-20T19:38:34.288Z,78.21
2023-10-20T19:41:00.976Z,78.52
2023-10-20T19:43:27.864Z,79.05
2023-10-20T19:45:54.546Z,78.65
2023-10-20T19:48:21.126Z,78.57
2023-10-20T19:50:47.833Z,78.68
2023-10-20T19:53:14.588Z,78.70
2023-10-20T19:55:42.343Z,78.83
2023-10-20T19:58:08.836Z,79.12
2023-10-20T20:00:35.511Z,79.09
2023-10-20T20:03:02.323Z,79.31
2023-10-20T20:05:29.025Z,79.55
2023-10-20T20:07:56.810Z,79.47
2023-10-20T20:10:23.859Z,79.65
2023-10-20T20:12:50.702Z,79.28
2023-10-20T20:15:17.253Z,79.16
2023-10-20T20:17:44.080Z,79.55
2023-10-20T20:20:10.904Z,79.43
2023-10-20T20:22:37.738Z,79.43
2023-10-20T20:25:04.608Z,79.34
2023-10-20T20:27:32.480Z,79.00
2023-10-20T20:29:59.193Z,78.57
2023-10-20T20:32:25.841Z,78.02
2023-10-20T20:34:52.385Z,77.98
2023-10-20T20:37:20.280Z,77.90
2023-10-20T20:39:47.012Z,77.60
2023-10-20T20:42:13.612Z,77.67
2023-10-20T20:44:40.228Z,77.48
2023-10-20T20:47:06.986Z,77.66
2023-10-20T20:49:35.170Z,77.96
2023-10-20T20:52:02.048Z,78.09
2023-10-20T20:54:28.651Z,78.17
2023-10-20T20:56:55.225Z,78.32
2023-10-20T20:59:21.899Z,78.33
2023-10-20T21:01:48.466Z,78.35
2023-10-20T21:04:15.143Z,78.72
2023-10-20T21:06:41.802Z,78.97
2023-10-20T21:09:10.265Z,79.29
2023-10-20T21:11:37.564Z,79.30
2023-10-20T21:14:04.280Z,79.24
2023-10-20T21:16:32.095Z,79.18
2023-10-20T21:19:01.516Z,79.24
2023-10-20T21:21:28.209Z,78.98
2023-10-20T21:23:54.850Z,78.65
2023-10-20T21:26:22.732Z,78.44
2023-10-20T21:28:49.488Z,78.34
2023-10-20T21:31:16.098Z,78.11
2023-10-20T21:33:43.004Z,78.10
2023-10-20T21:36:14.747Z,77.98
2023-10-20T21:38:41.385Z,77.96
2023-10-20T21:41:08.051Z,77.46
2023-10-20T21:43:34.544Z,77.67
2023-10-20T21:46:01.234Z,77.42
2023-10-20T21:48:27.898Z,77.77
2023-10-20T21:50:58.719Z,77.36
2023-10-20T21:53:26.184Z,77.24
2023-10-20T21:56:02.067Z,77.14
2023-10-20T21:58:29.411Z,77.11
2023-10-20T22:00:56.517Z,77.02
2023-10-20T22:03:23.738Z,77.00
2023-10-20T22:05:54.175Z,76.98
2023-10-20T22:08:21.568Z,77.16
2023-10-20T22:10:48.503Z,77.34
2023-10-20T22:13:15.164Z,77.34
2023-10-20T22:15:41.891Z,77.27
2023-10-20T22:18:09.228Z,77.31
2023-10-20T22:20:35.952Z,77.71
2023-10-20T22:23:02.580Z,77.77
2023-10-20T22:25:29.343Z,77.85
2023-10-20T22:27:56.710Z,77.76
2023-10-20T22:30:24.025Z,77.66
2023-10-20T22:32:50.635Z,77.66
2023-10-20T22:35:17.213Z,77.42
2023-10-20T22:37:43.664Z,77.40
2023-10-20T22:40:10.807Z,77.42
2023-10-20T22:42:37.498Z,77.40
2023-10-20T22:45:05.469Z,77.22
2023-10-20T22:47:33.351Z,77.50
2023-10-20T22:50:00.204Z,77.21
2023-10-20T22:52:26.900Z,77.45
2023-10-20T22:54:53.466Z,77.53
2023-10-20T22:57:20.205Z,77.52
2023-10-20T22:59:46.702Z,77.34
2023-10-20T23:02:13.205Z,77.31
2023-10-20T23:04:39.736Z,77.47
2023-10-20T23:07:06.369Z,77.65
2023-10-20T23:09:33.163Z,77.28
2023-10-20T23:11:59.897Z,77.43
2023-10-20T23:14:26.623Z,77.62
2023-10-20T23:16:53.943Z,77.36
2023-10-20T23:19:20.449Z,77.47
2023-10-20T23:21:46.861Z,77.31
2023-10-20T23:24:13.384Z,76.97
2023-10-20T23:26:39.993Z,77.08
2023-10-20T23:29:06.486Z,76.94
2023-10-20T23:31:33.905Z,76.92
2023-10-20T23:34:00.341Z,77.21
2023-10-20T23:36:26.749Z,77.02
2023-10-20T23:38:53.208Z,76.96
2023-10-20T23:41:19.598Z,77.03
2023-10-20T23:43:46.072Z,77.16
2023-10-20T23:46:12.562Z,76.81
2023-10-20T23:48:39.070Z,77.12
2023-10-20T23:51:05.712Z,76.83
2023-10-20T23:53:32.181Z,77.04
2023-10-20T23:55:58.579Z,77.45
2023-10-20T23:58:25.055Z,77.20
